Time;durP1;ratioP1;P1;durP2;ratioP2;P2;SDS_P1;SDS_P2;PMS_P1;PMS_P2;Temp;Humidity;BMP_temperature;BMP_pressure;BME280_temperature;BME280_humidity;BME280_pressure;Samples;Min_cycle;Max_cycle;Signal;HPM_P1;HPM_P2
2022/01/23 00:02:18;;;;;;;0.10;0.10;;;4.70;99.90;226.50;231333.00;;;;4992679;28;20191;-73
2022/01/23 00:04:46;;;;;;;0.10;0.10;;;4.60;99.90;226.50;231333.00;;;;4990097;28;20796;-76
2022/01/23 00:07:15;;;;;;;0.10;0.10;;;4.60;99.90;226.50;231333.00;;;;4992419;28;20200;-76
2022/01/23 00:09:44;;;;;;;0.10;0.10;;;4.60;99.90;226.50;231333.00;;;;4992133;28;20235;-76
2022/01/23 00:12:15;;;;;;;0.10;0.10;;;4.60;99.90;226.50;231333.00;;;;4991739;28;20204;-75
2022/01/23 00:17:33;;;;;;;0.10;0.10;;;4.60;99.90;226.50;231333.00;;;;4990770;28;20216;-72
2022/01/23 00:20:06;;;;;;;0.10;0.10;;;4.70;99.90;226.50;231333.00;;;;4987360;28;20232;-72
2022/01/23 00:22:40;;;;;;;0.10;0.10;;;4.70;99.90;226.50;231333.00;;;;5002111;28;20205;-71
2022/01/23 00:30:44;;;;;;;0.10;0.10;;;4.80;99.90;226.50;231333.00;;;;5005661;28;20203;-72
2022/01/23 00:33:15;;;;;;;0.10;0.10;;;4.80;99.90;226.50;231333.00;;;;4991704;28;20705;-74
2022/01/23 00:35:47;;;;;;;0.10;0.10;;;4.70;99.90;226.50;231333.00;;;;4991788;28;20275;-73
2022/01/23 00:38:18;;;;;;;0.10;0.10;;;4.80;99.90;226.50;231333.00;;;;4991740;28;20267;-73
2022/01/23 00:40:48;;;;;;;0.05;0.05;;;4.80;99.90;226.50;231333.00;;;;5006948;28;20708;-73
2022/01/23 00:43:26;;;;;;;0.10;0.10;;;4.80;99.90;226.50;231333.00;;;;4990360;28;20717;-74
2022/01/23 00:46:09;;;;;;;0.10;0.10;;;4.80;99.90;226.50;231333.00;;;;4982887;28;20203;-73
2022/01/23 00:48:51;;;;;;;0.10;0.10;;;4.80;99.90;226.50;231333.00;;;;4990669;28;20198;-73
2022/01/23 00:51:19;;;;;;;0.10;0.10;;;4.80;99.90;226.50;231333.00;;;;5006810;28;20223;-72
2022/01/23 00:53:47;;;;;;;0.10;0.10;;;4.80;99.90;226.50;231333.00;;;;4990292;28;20270;-73
2022/01/23 00:56:16;;;;;;;0.10;0.10;;;4.70;99.90;226.50;231333.00;;;;4991414;28;20286;-72
2022/01/23 00:58:44;;;;;;;0.10;0.10;;;4.70;99.90;226.50;231333.00;;;;4989815;28;20196;-72
2022/01/23 01:01:13;;;;;;;0.10;0.10;;;4.70;99.90;226.50;231333.00;;;;4991806;28;20199;-73
2022/01/23 01:03:45;;;;;;;0.10;0.10;;;4.70;99.90;226.50;231333.00;;;;5005336;28;20220;-74
2022/01/23 01:06:17;;;;;;;0.10;0.10;;;4.70;99.90;226.50;231333.00;;;;4990464;28;20665;-73
2022/01/23 01:08:50;;;;;;;0.10;0.10;;;4.50;99.90;226.50;231333.00;;;;4991230;28;20716;-73
2022/01/23 01:11:45;;;;;;;0.10;0.10;;;4.50;99.90;226.50;231333.00;;;;4991731;28;20896;-73
2022/01/23 01:14:24;;;;;;;0.10;0.10;;;4.40;99.90;226.50;231333.00;;;;5000349;28;20677;-72
2022/01/23 01:16:59;;;;;;;0.10;0.10;;;4.40;99.90;226.50;231333.00;;;;5004200;28;20213;-73
2022/01/23 01:31:02;;;;;;;0.10;0.10;;;4.40;99.90;226.50;231333.00;;;;4987878;28;20200;-73
2022/01/23 01:33:47;;;;;;;0.10;0.10;;;4.30;99.90;226.50;231333.00;;;;4979283;28;20236;-74
2022/01/23 01:36:23;;;;;;;0.10;0.10;;;4.30;99.90;226.50;231333.00;;;;5008659;28;20749;-73
2022/01/23 01:38:53;;;;;;;0.10;0.10;;;4.40;99.90;226.50;231333.00;;;;4997750;28;20236;-73
2022/01/23 01:41:24;;;;;;;0.10;0.10;;;4.40;99.90;226.50;231333.00;;;;4992289;28;20204;-73
2022/01/23 01:43:57;;;;;;;0.10;0.10;;;4.40;99.90;226.50;231333.00;;;;4993463;28;20216;-73
2022/01/23 01:46:46;;;;;;;0.10;0.10;;;4.40;99.90;226.50;231333.00;;;;4987541;28;20294;-72
2022/01/23 01:49:25;;;;;;;0.10;0.10;;;4.50;99.90;226.50;231333.00;;;;4993731;28;20208;-72
2022/01/23 01:51:55;;;;;;;0.10;0.10;;;4.40;99.90;226.50;231333.00;;;;5006947;28;20197;-72
2022/01/23 01:54:28;;;;;;;0.10;0.10;;;4.40;99.90;226.50;231333.00;;;;4991240;28;20278;-73
2022/01/23 01:57:06;;;;;;;0.10;0.10;;;4.30;99.90;226.50;231333.00;;;;5008203;28;20205;-72
2022/01/23 02:00:01;;;;;;;0.10;0.10;;;4.30;99.90;226.50;231333.00;;;;5007621;28;20196;-73
2022/01/23 02:03:21;;;;;;;0.10;0.10;;;4.20;99.90;226.50;231333.00;;;;4992203;28;20216;-73
2022/01/23 02:08:48;;;;;;;0.10;0.10;;;4.30;99.90;226.50;231333.00;;;;4993570;28;20352;-72
2022/01/23 02:11:21;;;;;;;0.10;0.10;;;4.20;99.90;226.50;231333.00;;;;5010079;28;20200;-72
2022/01/23 02:13:55;;;;;;;0.10;0.10;;;4.30;99.90;226.50;231333.00;;;;5006808;28;20208;-72
2022/01/23 02:16:58;;;;;;;0.10;0.10;;;4.30;99.90;226.50;231333.00;;;;5005935;28;20198;-73
2022/01/23 02:22:45;;;;;;;0.10;0.10;;;4.30;99.90;226.50;231333.00;;;;4999087;28;20592;-72
2022/01/23 02:50:52;;;;;;;0.10;0.10;;;4.30;99.90;226.50;231333.00;;;;4991541;28;20591;-74
2022/01/23 02:53:52;;;;;;;0.10;0.10;;;4.30;99.90;226.50;231333.00;;;;5001754;28;20642;-74
2022/01/23 02:56:32;;;;;;;0.10;0.10;;;4.30;99.90;226.50;231333.00;;;;4992544;28;20227;-72
2022/01/23 02:59:12;;;;;;;0.10;0.10;;;4.40;99.90;226.50;231333.00;;;;5004574;28;20224;-73
2022/01/23 03:01:58;;;;;;;0.10;0.10;;;4.20;99.90;226.50;231333.00;;;;5003108;28;20189;-72
2022/01/23 03:04:53;;;;;;;0.10;0.10;;;4.10;99.90;226.50;231333.00;;;;5012021;28;20216;-72
2022/01/23 03:07:52;;;;;;;0.10;0.10;;;4.20;99.90;226.50;231333.00;;;;4992065;28;20732;-72
2022/01/23 03:10:24;;;;;;;0.10;0.10;;;4.20;99.90;226.50;231333.00;;;;5008782;28;20208;-71
2022/01/23 03:13:36;;;;;;;0.10;0.10;;;4.30;99.90;226.50;231333.00;;;;5005475;28;20220;-72
2022/01/23 03:24:33;;;;;;;0.10;0.10;;;4.30;99.90;226.50;231333.00;;;;4992290;28;20614;-74
2022/01/23 03:27:25;;;;;;;0.10;0.10;;;4.30;99.90;226.50;231333.00;;;;4991151;28;20744;-74
2022/01/23 03:29:56;;;;;;;0.10;0.10;;;4.20;99.90;226.50;231333.00;;;;5007695;28;20196;-71
2022/01/23 03:32:33;;;;;;;0.10;0.10;;;4.20;99.90;226.50;231333.00;;;;4993155;28;20204;-72
2022/01/23 03:35:01;;;;;;;0.10;0.10;;;4.10;99.90;226.50;231333.00;;;;5004296;28;20204;-72
2022/01/23 03:37:29;;;;;;;0.10;0.10;;;4.20;99.90;226.50;231333.00;;;;4991518;28;20213;-72
2022/01/23 03:39:57;;;;;;;0.10;0.10;;;4.20;99.90;226.50;231333.00;;;;5006536;28;20247;-72
2022/01/23 03:42:26;;;;;;;0.10;0.10;;;4.10;99.90;226.50;231333.00;;;;4988978;28;20247;-73
2022/01/23 03:45:14;;;;;;;0.10;0.10;;;4.00;99.90;226.50;231333.00;;;;4992345;28;20240;-72
2022/01/23 03:48:01;;;;;;;0.10;0.10;;;4.00;99.90;226.50;231333.00;;;;4993606;28;20636;-73
2022/01/23 03:50:28;;;;;;;0.10;0.10;;;3.90;99.90;226.50;231333.00;;;;4986532;28;20228;-73
2022/01/23 03:52:59;;;;;;;0.10;0.10;;;3.90;99.90;226.50;231333.00;;;;4991062;28;20304;-73
2022/01/23 03:55:27;;;;;;;0.10;0.10;;;3.90;99.90;226.50;231333.00;;;;5019150;28;20204;-72
2022/01/23 03:57:55;;;;;;;0.10;0.10;;;3.90;99.90;226.50;231333.00;;;;4990543;28;20216;-72
2022/01/23 04:00:25;;;;;;;0.10;0.10;;;3.90;99.90;226.50;231333.00;;;;4989462;28;20264;-72
2022/01/23 04:02:58;;;;;;;0.10;0.10;;;4.00;99.90;226.50;231333.00;;;;5007859;28;20211;-72
2022/01/23 04:05:29;;;;;;;0.10;0.10;;;4.00;99.90;226.50;231333.00;;;;4989333;28;20214;-72
2022/01/23 04:07:57;;;;;;;0.10;0.10;;;4.00;99.90;226.50;231333.00;;;;4981047;28;20201;-72
2022/01/23 04:10:28;;;;;;;0.10;0.10;;;4.10;99.90;226.50;231333.00;;;;5003655;28;20201;-72
2022/01/23 04:13:11;;;;;;;0.10;0.10;;;4.10;99.90;226.50;231333.00;;;;5000750;28;20224;-72
2022/01/23 04:15:47;;;;;;;0.10;0.10;;;4.20;99.90;226.50;231333.00;;;;4991047;28;20196;-72
2022/01/23 04:19:07;;;;;;;0.10;0.10;;;4.10;99.90;226.50;231333.00;;;;4998610;28;20215;-72
2022/01/23 04:33:15;;;;;;;0.10;0.10;;;4.10;99.90;226.50;231333.00;;;;4990925;28;20184;-72
2022/01/23 04:45:12;;;;;;;0.10;0.10;;;4.10;99.90;226.50;231333.00;;;;4999691;28;20662;-72
2022/01/23 05:01:02;;;;;;;0.10;0.10;;;4.00;99.90;226.50;231333.00;;;;5004120;28;20197;-71
2022/01/23 05:07:01;;;;;;;0.10;0.10;;;3.90;99.90;226.50;231333.00;;;;4990558;28;20286;-72
2022/01/23 05:09:52;;;;;;;0.10;0.10;;;3.90;99.90;226.50;231333.00;;;;4991628;28;20208;-72
2022/01/23 05:12:37;;;;;;;0.10;0.10;;;3.90;99.90;226.50;231333.00;;;;5004318;28;20199;-73
2022/01/23 05:15:07;;;;;;;0.10;0.10;;;3.90;99.90;226.50;231333.00;;;;5006509;28;20228;-72
2022/01/23 05:17:39;;;;;;;0.10;0.10;;;4.00;99.90;226.50;231333.00;;;;4984715;28;20290;-73
2022/01/23 05:20:08;;;;;;;0.10;0.10;;;4.00;99.90;226.50;231333.00;;;;5006704;28;20279;-73
2022/01/23 05:22:42;;;;;;;0.10;0.10;;;4.00;99.90;226.50;231333.00;;;;4991606;28;20184;-72
2022/01/23 05:25:18;;;;;;;0.10;0.10;;;4.00;99.90;226.50;231333.00;;;;4988507;28;20263;-72
2022/01/23 05:27:46;;;;;;;0.10;0.10;;;4.00;99.90;226.50;231333.00;;;;4990074;28;20199;-72
2022/01/23 05:30:15;;;;;;;0.10;0.10;;;3.90;99.90;226.50;231333.00;;;;4991416;28;20188;-73
2022/01/23 05:32:43;;;;;;;0.10;0.10;;;3.90;99.90;226.50;231333.00;;;;4991030;28;20191;-74
2022/01/23 05:35:17;;;;;;;0.10;0.10;;;4.00;99.90;226.50;231333.00;;;;5006447;28;20667;-73
2022/01/23 05:37:47;;;;;;;0.10;0.10;;;3.90;99.90;226.50;231333.00;;;;4985241;28;20243;-72
2022/01/23 05:40:21;;;;;;;0.10;0.10;;;3.90;99.90;226.50;231333.00;;;;4991865;28;20243;-72
2022/01/23 05:42:52;;;;;;;0.10;0.10;;;3.90;99.90;226.50;231333.00;;;;4988354;28;20570;-72
2022/01/23 05:45:21;;;;;;;0.10;0.10;;;3.90;99.90;226.50;231333.00;;;;4983997;28;20197;-71
2022/01/23 05:48:07;;;;;;;0.10;0.10;;;3.90;99.90;226.50;231333.00;;;;4991183;28;20202;-71
2022/01/23 05:50:54;;;;;;;0.10;0.10;;;3.90;99.90;226.50;231333.00;;;;4989070;28;20219;-72
2022/01/23 05:53:42;;;;;;;0.10;0.10;;;3.90;99.90;226.50;231333.00;;;;4991541;28;20231;-72
2022/01/23 05:56:29;;;;;;;0.10;0.10;;;3.80;99.90;226.50;231333.00;;;;4991230;28;20577;-73
2022/01/23 05:59:00;;;;;;;0.10;0.10;;;3.80;99.90;226.50;231333.00;;;;4990861;28;20739;-73
2022/01/23 06:01:32;;;;;;;0.10;0.10;;;3.80;99.90;226.50;231333.00;;;;4989356;28;20674;-73
2022/01/23 06:04:06;;;;;;;0.10;0.10;;;3.80;99.90;226.50;231333.00;;;;5005827;28;20227;-72
2022/01/23 06:06:43;;;;;;;0.10;0.10;;;3.80;99.90;226.50;231333.00;;;;4989537;28;20207;-74
2022/01/23 06:09:12;;;;;;;0.10;0.10;;;3.90;99.90;226.50;231333.00;;;;4998679;28;20251;-74
2022/01/23 06:11:40;;;;;;;0.10;0.10;;;3.90;99.90;226.50;231333.00;;;;4990265;28;20204;-75
2022/01/23 06:14:09;;;;;;;0.10;0.10;;;3.90;99.90;226.50;231333.00;;;;4987452;28;20327;-74
2022/01/23 06:16:37;;;;;;;0.10;0.10;;;3.90;99.90;226.50;231333.00;;;;4990443;28;20196;-74
2022/01/23 06:19:24;;;;;;;0.10;0.10;;;3.90;99.90;226.50;231333.00;;;;4986085;28;20227;-73
2022/01/23 06:22:30;;;;;;;0.10;0.10;;;3.80;99.90;226.50;231333.00;;;;4947894;29;20205;-76
2022/01/23 06:25:13;;;;;;;0.15;0.15;;;3.80;99.90;226.50;231333.00;;;;4934845;29;20201;-73
2022/01/23 06:27:51;;;;;;;0.10;0.10;;;3.80;99.90;226.50;231333.00;;;;4972129;28;20196;-74
2022/01/23 06:30:19;;;;;;;0.10;0.10;;;3.80;99.90;226.50;231333.00;;;;5009578;28;20611;-73
2022/01/23 06:32:47;;;;;;;0.10;0.10;;;3.80;99.90;226.50;231333.00;;;;5009633;28;20201;-74
2022/01/23 06:35:17;;;;;;;0.10;0.10;;;3.80;99.90;226.50;231333.00;;;;4995018;28;20232;-75
2022/01/23 06:37:45;;;;;;;0.10;0.10;;;3.80;99.90;226.50;231333.00;;;;4997792;28;20189;-75
2022/01/23 06:40:18;;;;;;;0.10;0.10;;;3.80;99.90;226.50;231333.00;;;;5020140;28;20593;-72
2022/01/23 06:43:06;;;;;;;0.10;0.10;;;3.80;99.90;226.50;231333.00;;;;4993440;28;20239;-72
2022/01/23 06:45:46;;;;;;;0.10;0.10;;;3.80;99.90;226.50;231333.00;;;;4992043;28;20196;-72
2022/01/23 06:48:14;;;;;;;0.10;0.10;;;3.80;99.90;226.50;231333.00;;;;4994460;28;20207;-73
2022/01/23 06:50:42;;;;;;;0.10;0.10;;;3.90;99.90;226.50;231333.00;;;;5022045;28;20601;-73
2022/01/23 06:53:13;;;;;;;0.10;0.10;;;3.80;99.90;226.50;231333.00;;;;5020192;28;20677;-72
2022/01/23 06:55:42;;;;;;;0.10;0.10;;;3.90;99.90;226.50;231333.00;;;;5012291;28;20542;-73
2022/01/23 06:58:10;;;;;;;0.10;0.10;;;3.80;99.90;226.50;231333.00;;;;5008595;28;20204;-71
2022/01/23 07:00:38;;;;;;;0.10;0.10;;;3.90;99.90;226.50;231333.00;;;;4993745;28;20212;-71
2022/01/23 07:03:18;;;;;;;0.10;0.10;;;3.90;99.90;226.50;231333.00;;;;4993432;28;20227;-71
2022/01/23 07:05:55;;;;;;;0.10;0.10;;;3.90;99.90;226.50;231333.00;;;;4993310;28;20403;-71
2022/01/23 07:08:40;;;;;;;0.10;0.10;;;4.00;99.90;226.50;231333.00;;;;5003519;28;20199;-72
2022/01/23 07:11:27;;;;;;;0.10;0.10;;;4.10;99.90;226.50;231333.00;;;;5007429;28;20212;-71
2022/01/23 07:14:07;;;;;;;0.10;0.10;;;4.00;99.90;226.50;231333.00;;;;5008491;28;20216;-71
2022/01/23 07:16:57;;;;;;;0.10;0.10;;;4.00;99.90;226.50;231333.00;;;;4981230;28;20200;-71
2022/01/23 07:19:46;;;;;;;0.10;0.10;;;4.00;99.90;226.50;231333.00;;;;4983929;28;20709;-71
2022/01/23 07:22:15;;;;;;;0.10;0.10;;;4.00;99.90;226.50;231333.00;;;;5008272;28;20681;-71
2022/01/23 07:24:43;;;;;;;0.10;0.10;;;3.90;99.90;226.50;231333.00;;;;4991757;28;20215;-71
2022/01/23 07:27:17;;;;;;;0.10;0.10;;;3.90;99.90;226.50;231333.00;;;;4992140;28;20200;-72
2022/01/23 07:29:46;;;;;;;0.10;0.10;;;3.90;99.90;226.50;231333.00;;;;4991721;28;20224;-72
2022/01/23 07:32:15;;;;;;;0.10;0.10;;;3.90;99.90;226.50;231333.00;;;;4991676;28;20291;-72
2022/01/23 07:34:43;;;;;;;0.10;0.10;;;3.90;99.90;226.50;231333.00;;;;5007288;28;20610;-72
2022/01/23 07:37:15;;;;;;;0.10;0.10;;;3.90;99.90;226.50;231333.00;;;;4989593;28;20251;-70
2022/01/23 07:40:01;;;;;;;0.10;0.10;;;3.90;99.90;226.50;231333.00;;;;4992240;28;20290;-70
2022/01/23 07:42:42;;;;;;;0.10;0.10;;;3.90;99.90;226.50;231333.00;;;;5002773;28;20200;-70
2022/01/23 07:45:28;;;;;;;0.10;0.10;;;3.90;99.90;226.50;231333.00;;;;4985903;28;20223;-71
2022/01/23 07:48:28;;;;;;;0.10;0.10;;;4.00;99.90;226.50;231333.00;;;;4964955;28;20208;-71
2022/01/23 07:51:09;;;;;;;0.10;0.10;;;4.00;99.90;226.50;231333.00;;;;5007060;28;20200;-71
2022/01/23 07:53:51;;;;;;;0.10;0.10;;;4.00;99.90;226.50;231333.00;;;;4980993;28;20227;-72
2022/01/23 07:56:55;;;;;;;0.10;0.10;;;4.00;99.90;226.50;231333.00;;;;4970483;28;20205;-73
2022/01/23 07:59:43;;;;;;;0.10;0.10;;;4.00;99.90;226.50;231333.00;;;;4983932;28;20231;-73
2022/01/23 08:02:41;;;;;;;0.10;0.10;;;4.00;99.90;226.50;231333.00;;;;4988401;28;20193;-72
2022/01/23 08:05:10;;;;;;;0.10;0.10;;;4.00;99.90;226.50;231333.00;;;;4988864;28;20200;-71
2022/01/23 08:07:45;;;;;;;0.10;0.10;;;4.00;99.90;226.50;231333.00;;;;4989684;28;20211;-71
2022/01/23 08:10:26;;;;;;;0.10;0.10;;;4.10;99.90;226.50;231333.00;;;;5001196;28;20254;-72
2022/01/23 08:12:54;;;;;;;0.10;0.10;;;4.10;99.90;226.50;231333.00;;;;4989248;28;20212;-72
2022/01/23 08:15:24;;;;;;;0.10;0.10;;;4.10;99.90;226.50;231333.00;;;;4985656;28;20589;-72
2022/01/23 08:17:52;;;;;;;0.10;0.10;;;4.10;99.90;226.50;231333.00;;;;4992034;28;20201;-73
2022/01/23 08:20:22;;;;;;;0.10;0.10;;;4.10;99.90;226.50;231333.00;;;;4993007;28;20224;-70
2022/01/23 08:22:52;;;;;;;0.10;0.10;;;4.20;99.90;226.50;231333.00;;;;4989051;28;20279;-74
2022/01/23 08:25:20;;;;;;;0.10;0.10;;;4.20;99.90;226.50;231333.00;;;;4991893;28;20625;-72
2022/01/23 08:27:48;;;;;;;0.10;0.10;;;4.20;99.90;226.50;231333.00;;;;4992670;28;20208;-72
2022/01/23 08:30:17;;;;;;;0.10;0.10;;;4.20;99.90;226.50;231333.00;;;;4990619;28;20196;-75
2022/01/23 08:32:46;;;;;;;0.10;0.10;;;4.30;99.90;226.50;231333.00;;;;4992567;28;20198;-76
2022/01/23 08:35:14;;;;;;;0.10;0.10;;;4.30;99.90;226.50;231333.00;;;;4992974;28;20255;-77
2022/01/23 08:37:43;;;;;;;0.10;0.10;;;4.30;99.90;226.50;231333.00;;;;4992256;28;20299;-74
2022/01/23 08:40:20;;;;;;;0.10;0.10;;;4.30;99.90;226.50;231333.00;;;;4992163;28;20224;-73
2022/01/23 08:42:48;;;;;;;0.10;0.10;;;4.40;99.90;226.50;231333.00;;;;4991688;28;20198;-73
2022/01/23 08:45:16;;;;;;;0.10;0.10;;;4.40;99.90;226.50;231333.00;;;;4991316;28;20254;-73
2022/01/23 08:47:45;;;;;;;0.10;0.10;;;4.30;99.90;226.50;231333.00;;;;4991341;28;20192;-73
2022/01/23 08:50:13;;;;;;;0.10;0.10;;;4.30;99.90;226.50;231333.00;;;;4979814;28;20201;-73
2022/01/23 08:52:41;;;;;;;0.10;0.10;;;4.40;99.90;226.50;231333.00;;;;4990354;28;20247;-73
2022/01/23 08:55:10;;;;;;;0.10;0.10;;;4.40;99.90;226.50;231333.00;;;;4990941;28;20448;-74
2022/01/23 08:57:38;;;;;;;0.10;0.10;;;4.50;99.90;226.50;231333.00;;;;4982492;28;20217;-73
2022/01/23 09:00:26;;;;;;;0.10;0.10;;;4.40;99.90;226.50;231333.00;;;;4991206;28;20292;-73
2022/01/23 09:02:56;;;;;;;0.10;0.10;;;4.40;99.90;226.50;231333.00;;;;4987505;28;20263;-73
2022/01/23 09:05:24;;;;;;;0.10;0.10;;;4.40;99.90;226.50;231333.00;;;;4987179;28;20199;-71
2022/01/23 09:07:52;;;;;;;0.10;0.10;;;4.40;99.90;226.50;231333.00;;;;4990733;28;20197;-71
2022/01/23 09:10:25;;;;;;;0.10;0.10;;;4.50;99.90;226.50;231333.00;;;;4985561;28;20258;-72
2022/01/23 09:13:05;;;;;;;0.10;0.10;;;4.60;99.90;226.50;231333.00;;;;4989521;28;20224;-72
2022/01/23 09:15:34;;;;;;;0.10;0.10;;;4.60;99.90;226.50;231333.00;;;;4990881;28;20234;-71
2022/01/23 09:18:04;;;;;;;0.10;0.10;;;4.60;99.90;226.50;231333.00;;;;4990683;28;20211;-71
2022/01/23 09:20:32;;;;;;;0.10;0.10;;;4.60;99.90;226.50;231333.00;;;;4990758;28;20752;-71
2022/01/23 09:23:00;;;;;;;0.08;0.08;;;4.60;99.90;226.50;231333.00;;;;4991015;28;20239;-71
2022/01/23 09:25:28;;;;;;;0.00;0.00;;;4.60;99.90;226.50;231333.00;;;;4989514;28;20560;-71
2022/01/23 09:28:07;;;;;;;0.10;0.10;;;4.60;99.90;226.50;231333.00;;;;4990416;28;20196;-71
2022/01/23 09:30:39;;;;;;;0.10;0.10;;;4.60;99.90;226.50;231333.00;;;;4990579;28;20279;-71
2022/01/23 09:33:08;;;;;;;0.10;0.10;;;4.60;99.90;226.50;231333.00;;;;4990078;28;20236;-71
2022/01/23 09:35:36;;;;;;;0.10;0.10;;;4.70;99.90;226.50;231333.00;;;;4990807;28;20197;-71
2022/01/23 09:38:04;;;;;;;0.10;0.10;;;4.60;99.90;226.50;231333.00;;;;4990051;28;20873;-73
2022/01/23 09:40:33;;;;;;;0.10;0.10;;;4.70;99.90;226.50;231333.00;;;;4990537;28;20262;-71
2022/01/23 09:43:09;;;;;;;0.10;0.10;;;4.80;99.90;226.50;231333.00;;;;4990073;28;20224;-71
2022/01/23 09:45:39;;;;;;;0.10;0.10;;;4.80;99.90;226.50;231333.00;;;;4990589;28;20196;-71
2022/01/23 09:48:09;;;;;;;0.10;0.10;;;4.90;99.90;226.50;231333.00;;;;4990600;28;20204;-71
2022/01/23 09:50:37;;;;;;;0.10;0.10;;;4.90;99.90;226.50;231333.00;;;;4990277;28;20661;-73
2022/01/23 09:53:07;;;;;;;0.10;0.10;;;4.90;99.90;226.50;231333.00;;;;4990160;28;20212;-71
2022/01/23 09:55:37;;;;;;;0.10;0.10;;;4.80;99.90;226.50;231333.00;;;;4989951;28;20207;-71
2022/01/23 09:58:05;;;;;;;0.10;0.10;;;4.80;99.90;226.50;231333.00;;;;4993547;28;20208;-71
2022/01/23 10:00:34;;;;;;;0.10;0.10;;;4.80;99.90;226.50;231333.00;;;;4993896;28;20536;-71
2022/01/23 10:03:03;;;;;;;0.10;0.10;;;4.90;99.90;226.50;231333.00;;;;4993490;28;20697;-71
2022/01/23 10:05:33;;;;;;;0.10;0.10;;;4.90;99.90;226.50;231333.00;;;;4990475;28;20205;-71
2022/01/23 10:08:02;;;;;;;0.10;0.10;;;4.90;99.90;226.50;231333.00;;;;4993991;28;20279;-71
2022/01/23 10:10:35;;;;;;;0.10;0.10;;;4.80;99.90;226.50;231333.00;;;;4994549;28;20214;-71
2022/01/23 10:13:08;;;;;;;0.10;0.10;;;4.90;99.90;226.50;231333.00;;;;5006767;28;20235;-73
2022/01/23 10:15:36;;;;;;;0.10;0.10;;;4.80;99.90;226.50;231333.00;;;;5001055;28;20228;-71
2022/01/23 10:18:04;;;;;;;0.10;0.10;;;4.80;99.90;226.50;231333.00;;;;4989282;28;20211;-71
2022/01/23 10:20:34;;;;;;;0.10;0.10;;;4.80;99.90;226.50;231333.00;;;;4995736;28;20193;-71
2022/01/23 10:23:02;;;;;;;0.10;0.10;;;4.80;99.90;226.50;231333.00;;;;5017784;28;20661;-71
2022/01/23 10:25:33;;;;;;;0.10;0.10;;;5.00;99.90;226.50;231333.00;;;;5008443;28;20199;-72
2022/01/23 10:28:07;;;;;;;0.10;0.10;;;5.10;99.90;226.50;231333.00;;;;5003104;28;20204;-71
2022/01/23 10:30:41;;;;;;;0.10;0.10;;;5.10;99.90;226.50;231333.00;;;;4996026;28;20196;-71
2022/01/23 10:33:15;;;;;;;0.10;0.10;;;5.10;99.90;226.50;231333.00;;;;4993971;28;20302;-71
2022/01/23 10:35:59;;;;;;;0.10;0.10;;;5.10;99.90;226.50;231333.00;;;;4993778;28;20193;-71
2022/01/23 10:38:30;;;;;;;0.10;0.10;;;5.10;99.90;226.50;231333.00;;;;4988140;28;20184;-71
2022/01/23 10:41:28;;;;;;;0.10;0.10;;;5.00;99.90;226.50;231333.00;;;;4993935;28;20197;-71
2022/01/23 10:47:30;;;;;;;0.10;0.10;;;5.10;99.90;226.50;231333.00;;;;4989912;28;20251;-71
2022/01/23 10:50:01;;;;;;;0.10;0.10;;;5.10;99.90;226.50;231333.00;;;;4992523;28;20200;-71
2022/01/23 10:52:33;;;;;;;0.10;0.10;;;5.10;99.90;226.50;231333.00;;;;4991869;28;20215;-71
2022/01/23 10:55:02;;;;;;;0.10;0.10;;;5.20;99.90;226.50;231333.00;;;;4993096;28;20211;-71
2022/01/23 10:57:36;;;;;;;0.10;0.10;;;5.20;99.90;226.50;231333.00;;;;4993027;28;20209;-71
2022/01/23 11:00:07;;;;;;;0.10;0.10;;;5.20;99.90;226.50;231333.00;;;;4993395;28;20219;-71
2022/01/23 11:02:41;;;;;;;0.10;0.10;;;5.10;99.90;226.50;231333.00;;;;4979894;28;20278;-71
2022/01/23 11:05:12;;;;;;;0.10;0.10;;;5.20;99.90;226.50;231333.00;;;;4992448;28;20617;-71
2022/01/23 11:07:44;;;;;;;0.10;0.10;;;5.20;99.90;226.50;231333.00;;;;4991867;28;20199;-71
2022/01/23 11:10:16;;;;;;;0.10;0.10;;;5.40;99.90;226.50;231333.00;;;;4994105;28;20264;-71
2022/01/23 11:18:38;;;;;;;0.10;0.10;;;5.40;99.90;226.50;231333.00;;;;4984997;28;20201;-71
2022/01/23 11:21:21;;;;;;;0.10;0.10;;;5.40;99.90;226.50;231333.00;;;;4986065;28;20215;-71
2022/01/23 11:24:12;;;;;;;0.10;0.10;;;5.50;99.90;226.50;231333.00;;;;4993467;28;20319;-71
2022/01/23 11:26:42;;;;;;;0.10;0.10;;;5.60;99.90;226.50;231333.00;;;;4982163;28;20260;-71
2022/01/23 11:29:13;;;;;;;0.10;0.10;;;5.60;99.90;226.50;231333.00;;;;4987412;28;20204;-71
2022/01/23 11:31:43;;;;;;;0.10;0.10;;;5.60;99.90;226.50;231333.00;;;;4993607;28;20638;-71
2022/01/23 11:34:14;;;;;;;0.10;0.10;;;5.70;99.90;226.50;231333.00;;;;4993148;28;20283;-71
2022/01/23 11:36:42;;;;;;;0.10;0.10;;;5.60;99.90;226.50;231333.00;;;;4993377;28;20631;-71
2022/01/23 11:39:16;;;;;;;0.10;0.10;;;5.40;99.90;226.50;231333.00;;;;4993369;28;20204;-71
2022/01/23 11:53:46;;;;;;;0.10;0.10;;;5.50;99.90;226.50;231333.00;;;;4975869;28;20302;-71
2022/01/23 11:56:44;;;;;;;0.10;0.10;;;5.50;99.90;226.50;231333.00;;;;4992940;28;20203;-71
2022/01/23 11:59:40;;;;;;;0.10;0.10;;;5.50;99.90;226.50;231333.00;;;;4993439;28;20211;-71
2022/01/23 12:02:26;;;;;;;0.10;0.10;;;5.60;99.90;226.50;231333.00;;;;4993085;28;20254;-71
2022/01/23 12:05:32;;;;;;;0.10;0.10;;;5.60;99.90;226.50;231333.00;;;;4992880;28;20212;-71
2022/01/23 12:17:28;;;;;;;0.10;0.10;;;5.50;99.90;226.50;231333.00;;;;4994865;28;20231;-71
2022/01/23 12:19:58;;;;;;;0.10;0.10;;;5.40;99.90;226.50;231333.00;;;;4972530;28;20204;-71
2022/01/23 12:22:36;;;;;;;0.10;0.10;;;5.50;99.90;226.50;231333.00;;;;4992836;28;20231;-71
2022/01/23 12:25:22;;;;;;;0.10;0.10;;;5.50;99.90;226.50;231333.00;;;;4992451;28;20279;-72
2022/01/23 12:28:10;;;;;;;0.10;0.10;;;5.40;99.90;226.50;231333.00;;;;4985057;28;20663;-71
2022/01/23 12:30:43;;;;;;;0.10;0.10;;;5.50;99.90;226.50;231333.00;;;;5000088;28;20259;-71
2022/01/23 12:33:47;;;;;;;0.10;0.10;;;5.50;99.90;226.50;231333.00;;;;4990867;28;20240;-71
2022/01/23 12:36:29;;;;;;;0.10;0.10;;;5.50;99.90;226.50;231333.00;;;;4992184;28;20203;-71
2022/01/23 12:39:18;;;;;;;0.10;0.10;;;5.50;99.90;226.50;231333.00;;;;4992389;28;20196;-71
2022/01/23 12:41:59;;;;;;;0.10;0.10;;;5.40;99.90;226.50;231333.00;;;;4992353;28;20725;-71
2022/01/23 12:44:37;;;;;;;0.10;0.10;;;5.30;99.90;226.50;231333.00;;;;4992335;28;20235;-71
2022/01/23 12:47:18;;;;;;;0.10;0.10;;;5.40;99.90;226.50;231333.00;;;;4991942;28;20617;-71
2022/01/23 12:49:52;;;;;;;0.10;0.10;;;5.30;99.90;226.50;231333.00;;;;4992746;28;20215;-71
2022/01/23 12:52:22;;;;;;;0.10;0.10;;;5.30;99.90;226.50;231333.00;;;;4992870;28;20211;-73
2022/01/23 12:54:57;;;;;;;0.10;0.10;;;5.20;99.90;226.50;231333.00;;;;4992229;28;20259;-71
2022/01/23 12:57:35;;;;;;;0.10;0.10;;;5.20;99.90;226.50;231333.00;;;;4992334;28;20216;-71
2022/01/23 13:00:10;;;;;;;0.10;0.10;;;5.30;99.90;226.50;231333.00;;;;4992269;28;20717;-71
2022/01/23 13:02:44;;;;;;;0.10;0.10;;;5.20;99.90;226.50;231333.00;;;;4992169;28;20246;-71
2022/01/23 13:05:15;;;;;;;0.10;0.10;;;5.20;99.90;226.50;231333.00;;;;4991988;28;20191;-71
2022/01/23 13:08:01;;;;;;;0.10;0.10;;;5.30;99.90;226.50;231333.00;;;;4992027;28;20189;-71
2022/01/23 13:10:51;;;;;;;0.10;0.10;;;5.30;99.90;226.50;231333.00;;;;4992170;28;20232;-71
2022/01/23 13:13:34;;;;;;;0.10;0.10;;;5.30;99.90;226.50;231333.00;;;;4992036;28;20263;-71
2022/01/23 13:16:20;;;;;;;0.10;0.10;;;5.40;99.90;226.50;231333.00;;;;4991717;28;20200;-71
2022/01/23 13:19:20;;;;;;;0.10;0.10;;;5.40;99.90;226.50;231333.00;;;;4991906;28;20227;-71
2022/01/23 13:28:05;;;;;;;0.10;0.10;;;5.40;99.90;226.50;231333.00;;;;4994891;28;20603;-71
2022/01/23 13:30:25;;;;;;;0.10;0.10;;;5.60;99.90;226.50;231333.00;;;;4995420;28;20706;-71
2022/01/23 13:33:04;;;;;;;0.10;0.10;;;5.60;99.90;226.50;231333.00;;;;4994782;28;20263;-71
2022/01/23 13:35:38;;;;;;;0.10;0.10;;;5.60;99.90;226.50;231333.00;;;;4994724;28;20540;-73
2022/01/23 13:38:18;;;;;;;0.10;0.10;;;5.60;99.90;226.50;231333.00;;;;4999866;28;20188;-71
2022/01/23 13:40:56;;;;;;;0.10;0.10;;;5.60;99.90;226.50;231333.00;;;;5001488;28;20224;-71